WAT6050 VNKT-VQPR
Flight info
| Callsign | WAT6050 |
|---|---|
| Flight time | 0h 40m |
| Altitude | 41000 |
| Route | IGRIS1C KIMTI G348 SUBSU DCT TAKTI DCT PRO |
| Aircraft | MD11/H-SDE1E2E3FGHIJ2J3J4J5M1RWXY/LB1D1 |
Departure
| Time | 2026-04-28 07:38 |
|---|---|
| Airport | Tribhuvan International Airport (VNKT) |
Arrival
| Time | 2026-04-28 08:19 |
|---|---|
| Airport | Paro International Airport (VQPR) |
| Time | Latitude | Longitude | Altitude | Speed | Heading |
|---|---|---|---|---|---|
| 2026-04-28 07:09 | 27.69819 | 85.35764 | 4373 ft | 0 kts | 291° |
| 2026-04-28 07:27 | 27.69810 | 85.35788 | 4360 ft | 4 kts | 297° |
| 2026-04-28 07:27 | 27.69799 | 85.35813 | 4373 ft | 4 kts | 272° |
| 2026-04-28 07:28 | 27.69801 | 85.35837 | 4373 ft | 4 kts | 251° |
| 2026-04-28 07:28 | 27.69811 | 85.35859 | 4374 ft | 4 kts | 219° |
| 2026-04-28 07:28 | 27.69831 | 85.35873 | 4374 ft | 2 kts | 201° |
| 2026-04-28 07:28 | 27.69836 | 85.35875 | 4375 ft | 0 kts | 201° |
| 2026-04-28 07:32 | 27.69813 | 85.35865 | 4366 ft | 8 kts | 201° |
| 2026-04-28 07:33 | 27.69760 | 85.35841 | 4372 ft | 12 kts | 201° |
| 2026-04-28 07:33 | 27.69659 | 85.35797 | 4370 ft | 19 kts | 201° |
| 2026-04-28 07:33 | 27.69514 | 85.35731 | 4365 ft | 26 kts | 203° |
| 2026-04-28 07:33 | 27.69346 | 85.35648 | 4359 ft | 27 kts | 204° |
| 2026-04-28 07:34 | 27.69176 | 85.35567 | 4353 ft | 24 kts | 195° |
| 2026-04-28 07:34 | 27.69087 | 85.35564 | 4350 ft | 5 kts | 146° |
| 2026-04-28 07:34 | 27.69062 | 85.35589 | 4349 ft | 5 kts | 141° |
| 2026-04-28 07:34 | 27.69031 | 85.35608 | 4348 ft | 4 kts | 163° |
| 2026-04-28 07:35 | 27.68958 | 85.35594 | 4346 ft | 17 kts | 199° |
| 2026-04-28 07:35 | 27.68844 | 85.35544 | 4343 ft | 17 kts | 203° |
| 2026-04-28 07:35 | 27.68711 | 85.35483 | 4338 ft | 24 kts | 201° |
| 2026-04-28 07:35 | 27.68538 | 85.35406 | 4335 ft | 25 kts | 201° |
| 2026-04-28 07:36 | 27.68464 | 85.35348 | 4332 ft | 8 kts | 238° |
| 2026-04-28 07:36 | 27.68433 | 85.35315 | 4331 ft | 2 kts | 197° |
| 2026-04-28 07:36 | 27.68420 | 85.35323 | 4331 ft | 3 kts | 144° |
| 2026-04-28 07:36 | 27.68416 | 85.35337 | 4332 ft | 3 kts | 104° |
| 2026-04-28 07:37 | 27.68422 | 85.35352 | 4332 ft | 2 kts | 56° |
| 2026-04-28 07:37 | 27.68432 | 85.35359 | 4332 ft | 1 kts | 27° |
| 2026-04-28 07:37 | 27.68436 | 85.35360 | 4332 ft | 0 kts | 21° |
| 2026-04-28 07:37 | 27.68461 | 85.35371 | 4333 ft | 17 kts | 21° |
| 2026-04-28 07:38 | 27.68888 | 85.35564 | 4344 ft | 116 kts | 21° |
| 2026-04-28 07:38 | 27.69910 | 85.36012 | 4434 ft | 189 kts | 20° |
| 2026-04-28 07:38 | 27.70721 | 85.36379 | 5105 ft | 188 kts | 21° |
| 2026-04-28 07:38 | 27.72162 | 85.37254 | 6868 ft | 179 kts | 46° |
| 2026-04-28 07:39 | 27.72702 | 85.38483 | 7990 ft | 186 kts | 81° |
| 2026-04-28 07:39 | 27.72550 | 85.40100 | 8297 ft | 234 kts | 113° |
| 2026-04-28 07:39 | 27.71650 | 85.41846 | 8507 ft | 282 kts | 125° |
| 2026-04-28 07:39 | 27.70502 | 85.43713 | 9522 ft | 294 kts | 125° |
| 2026-04-28 07:40 | 27.69353 | 85.45667 | 10610 ft | 311 kts | 123° |
| 2026-04-28 07:40 | 27.68549 | 85.47097 | 10718 ft | 341 kts | 122° |
| 2026-04-28 07:40 | 27.67252 | 85.49515 | 11162 ft | 373 kts | 121° |
| 2026-04-28 07:40 | 27.65498 | 85.52949 | 12800 ft | 382 kts | 120° |
| 2026-04-28 07:41 | 27.64630 | 85.54690 | 13580 ft | 386 kts | 120° |
| 2026-04-28 07:41 | 27.63315 | 85.57357 | 14694 ft | 392 kts | 119° |
| 2026-04-28 07:41 | 27.61990 | 85.60072 | 15724 ft | 398 kts | 118° |
| 2026-04-28 07:41 | 27.60932 | 85.62976 | 16647 ft | 404 kts | 105° |
| 2026-04-28 07:42 | 27.60441 | 85.66121 | 17548 ft | 411 kts | 96° |
| 2026-04-28 07:42 | 27.60226 | 85.69355 | 18405 ft | 417 kts | 94° |
| 2026-04-28 07:42 | 27.59931 | 85.72623 | 19229 ft | 422 kts | 98° |
| 2026-04-28 07:42 | 27.59459 | 85.75914 | 20021 ft | 427 kts | 101° |
| 2026-04-28 07:43 | 27.58882 | 85.79217 | 20823 ft | 432 kts | 102° |
| 2026-04-28 07:43 | 27.58253 | 85.82544 | 21579 ft | 437 kts | 103° |
| 2026-04-28 07:43 | 27.57596 | 85.85914 | 22302 ft | 443 kts | 102° |
| 2026-04-28 07:43 | 27.56929 | 85.89330 | 23083 ft | 449 kts | 102° |
| 2026-04-28 07:44 | 27.56259 | 85.92779 | 23866 ft | 454 kts | 102° |
| 2026-04-28 07:44 | 27.55582 | 85.96278 | 24637 ft | 459 kts | 102° |
| 2026-04-28 07:44 | 27.54902 | 85.99806 | 25423 ft | 464 kts | 102° |
| 2026-04-28 07:44 | 27.54216 | 86.03377 | 26203 ft | 469 kts | 102° |
| 2026-04-28 07:45 | 27.53523 | 86.06982 | 26933 ft | 474 kts | 102° |
| 2026-04-28 07:45 | 27.52819 | 86.10632 | 27601 ft | 481 kts | 102° |
| 2026-04-28 07:45 | 27.52110 | 86.14301 | 27959 ft | 491 kts | 101° |
| 2026-04-28 07:45 | 27.51377 | 86.18099 | 28337 ft | 501 kts | 102° |
| 2026-04-28 07:46 | 27.50633 | 86.21947 | 28716 ft | 505 kts | 102° |
| 2026-04-28 07:46 | 27.49882 | 86.25829 | 28891 ft | 507 kts | 102° |
| 2026-04-28 07:46 | 27.49144 | 86.29641 | 28918 ft | 486 kts | 102° |
| 2026-04-28 07:46 | 27.48448 | 86.33260 | 28925 ft | 463 kts | 101° |
| 2026-04-28 07:47 | 27.47112 | 86.40264 | 28925 ft | 455 kts | 101° |
| 2026-04-28 07:47 | 27.45785 | 86.47224 | 28918 ft | 454 kts | 101° |
| 2026-04-28 07:48 | 27.44458 | 86.54168 | 28914 ft | 454 kts | 101° |
| 2026-04-28 07:48 | 27.43129 | 86.61111 | 28899 ft | 454 kts | 101° |
| 2026-04-28 07:49 | 27.41805 | 86.68001 | 28910 ft | 454 kts | 101° |
| 2026-04-28 07:49 | 27.40466 | 86.74945 | 28904 ft | 454 kts | 101° |
| 2026-04-28 07:50 | 27.39125 | 86.81876 | 28909 ft | 453 kts | 101° |
| 2026-04-28 07:50 | 27.37782 | 86.88817 | 28907 ft | 453 kts | 102° |
| 2026-04-28 07:51 | 27.36433 | 86.95748 | 28902 ft | 453 kts | 102° |
| 2026-04-28 07:51 | 27.35085 | 87.02661 | 28895 ft | 452 kts | 102° |
| 2026-04-28 07:52 | 27.33959 | 87.09605 | 28889 ft | 451 kts | 96° |
| 2026-04-28 07:52 | 27.33284 | 87.16615 | 28883 ft | 451 kts | 95° |
| 2026-04-28 07:53 | 27.32943 | 87.20162 | 28888 ft | 465 kts | 95° |
| 2026-04-28 07:53 | 27.32566 | 87.23856 | 28886 ft | 485 kts | 96° |
| 2026-04-28 07:53 | 27.32161 | 87.27646 | 28888 ft | 504 kts | 96° |
| 2026-04-28 07:53 | 27.31722 | 87.31628 | 28884 ft | 520 kts | 96° |
| 2026-04-28 07:54 | 27.30787 | 87.39819 | 28874 ft | 534 kts | 97° |
| 2026-04-28 07:54 | 27.29832 | 87.48107 | 28872 ft | 535 kts | 96° |
| 2026-04-28 07:55 | 27.28883 | 87.56404 | 28876 ft | 536 kts | 96° |
| 2026-04-28 07:55 | 27.27928 | 87.64709 | 28874 ft | 535 kts | 97° |
| 2026-04-28 07:56 | 27.26966 | 87.73014 | 28867 ft | 535 kts | 96° |
| 2026-04-28 07:56 | 27.26002 | 87.81311 | 28865 ft | 535 kts | 96° |
| 2026-04-28 07:57 | 27.25032 | 87.89607 | 28910 ft | 535 kts | 97° |
| 2026-04-28 07:57 | 27.24059 | 87.97891 | 28987 ft | 535 kts | 97° |
| 2026-04-28 07:58 | 27.23085 | 88.06128 | 29001 ft | 536 kts | 97° |
| 2026-04-28 07:58 | 27.22091 | 88.14427 | 29003 ft | 536 kts | 97° |
| 2026-04-28 07:59 | 27.21080 | 88.22721 | 28961 ft | 536 kts | 97° |
| 2026-04-28 07:59 | 27.20073 | 88.31020 | 28961 ft | 536 kts | 97° |
| 2026-04-28 08:00 | 27.19070 | 88.39321 | 28971 ft | 536 kts | 97° |
| 2026-04-28 08:00 | 27.18061 | 88.47616 | 28990 ft | 536 kts | 97° |
| 2026-04-28 08:01 | 27.17048 | 88.55905 | 29004 ft | 536 kts | 97° |
| 2026-04-28 08:01 | 27.16033 | 88.64200 | 29009 ft | 536 kts | 97° |
| 2026-04-28 08:02 | 27.15015 | 88.72482 | 29004 ft | 536 kts | 97° |
| 2026-04-28 08:02 | 27.13989 | 88.80762 | 28557 ft | 536 kts | 97° |
| 2026-04-28 08:03 | 27.13468 | 88.84918 | 27896 ft | 537 kts | 97° |
| 2026-04-28 08:03 | 27.12948 | 88.89071 | 27100 ft | 538 kts | 97° |
| 2026-04-28 08:03 | 27.12439 | 88.93119 | 26355 ft | 510 kts | 97° |
| 2026-04-28 08:03 | 27.11945 | 88.97048 | 25601 ft | 504 kts | 97° |
| 2026-04-28 08:04 | 27.11470 | 89.00835 | 24888 ft | 486 kts | 97° |
| 2026-04-28 08:04 | 27.11009 | 89.04520 | 24192 ft | 468 kts | 97° |
| 2026-04-28 08:04 | 27.10565 | 89.08069 | 23530 ft | 452 kts | 97° |
| 2026-04-28 08:04 | 27.10135 | 89.11506 | 22887 ft | 437 kts | 97° |
| 2026-04-28 08:05 | 27.09718 | 89.14830 | 22269 ft | 424 kts | 97° |
| 2026-04-28 08:05 | 27.09319 | 89.17999 | 21669 ft | 395 kts | 98° |
| 2026-04-28 08:05 | 27.08942 | 89.20984 | 21114 ft | 381 kts | 97° |
| 2026-04-28 08:05 | 27.08581 | 89.23833 | 20579 ft | 356 kts | 97° |
| 2026-04-28 08:06 | 27.08241 | 89.26531 | 20086 ft | 346 kts | 98° |
| 2026-04-28 08:06 | 27.07907 | 89.29168 | 19598 ft | 337 kts | 98° |
| 2026-04-28 08:06 | 27.07583 | 89.31723 | 19128 ft | 329 kts | 98° |
| 2026-04-28 08:06 | 27.07262 | 89.34246 | 18671 ft | 320 kts | 98° |
| 2026-04-28 08:07 | 27.06959 | 89.36635 | 18181 ft | 295 kts | 98° |
| 2026-04-28 08:07 | 27.06786 | 89.38844 | 17547 ft | 276 kts | 91° |
| 2026-04-28 08:07 | 27.06888 | 89.40912 | 16918 ft | 256 kts | 81° |
| 2026-04-28 08:07 | 27.07275 | 89.42794 | 16274 ft | 241 kts | 71° |
| 2026-04-28 08:08 | 27.07905 | 89.44491 | 15636 ft | 232 kts | 61° |
| 2026-04-28 08:08 | 27.08739 | 89.46018 | 15021 ft | 225 kts | 52° |
| 2026-04-28 08:08 | 27.09704 | 89.47305 | 14645 ft | 215 kts | 45° |
| 2026-04-28 08:08 | 27.10812 | 89.48427 | 14207 ft | 213 kts | 36° |
| 2026-04-28 08:09 | 27.12029 | 89.49355 | 13842 ft | 211 kts | 28° |
| 2026-04-28 08:09 | 27.13351 | 89.50090 | 13673 ft | 209 kts | 20° |
| 2026-04-28 08:09 | 27.14711 | 89.50604 | 13722 ft | 209 kts | 12° |
| 2026-04-28 08:09 | 27.16139 | 89.50915 | 13622 ft | 208 kts | 5° |
| 2026-04-28 08:10 | 27.17560 | 89.51008 | 13534 ft | 207 kts | 357° |
| 2026-04-28 08:10 | 27.19014 | 89.50965 | 13411 ft | 207 kts | 355° |
| 2026-04-28 08:10 | 27.20454 | 89.50902 | 13337 ft | 207 kts | 356° |
| 2026-04-28 08:10 | 27.21893 | 89.50842 | 13215 ft | 208 kts | 356° |
| 2026-04-28 08:11 | 27.23338 | 89.50783 | 13085 ft | 207 kts | 356° |
| 2026-04-28 08:11 | 27.24769 | 89.50725 | 12984 ft | 204 kts | 355° |
| 2026-04-28 08:11 | 27.26198 | 89.50664 | 13007 ft | 206 kts | 356° |
| 2026-04-28 08:11 | 27.27633 | 89.50592 | 13008 ft | 207 kts | 355° |
| 2026-04-28 08:12 | 27.29068 | 89.50525 | 12981 ft | 206 kts | 353° |
| 2026-04-28 08:12 | 27.30411 | 89.50054 | 12894 ft | 201 kts | 329° |
| 2026-04-28 08:12 | 27.31643 | 89.49275 | 12788 ft | 205 kts | 327° |
| 2026-04-28 08:12 | 27.32873 | 89.48485 | 12381 ft | 201 kts | 328° |
| 2026-04-28 08:13 | 27.34098 | 89.47704 | 11884 ft | 204 kts | 328° |
| 2026-04-28 08:13 | 27.35329 | 89.46904 | 11394 ft | 205 kts | 328° |
| 2026-04-28 08:13 | 27.36562 | 89.46106 | 10906 ft | 204 kts | 327° |
| 2026-04-28 08:13 | 27.37763 | 89.45311 | 10510 ft | 197 kts | 324° |
| 2026-04-28 08:14 | 27.38865 | 89.44449 | 10137 ft | 186 kts | 322° |
| 2026-04-28 08:14 | 27.39900 | 89.43582 | 9756 ft | 185 kts | 313° |
| 2026-04-28 08:14 | 27.40697 | 89.42477 | 9609 ft | 183 kts | 303° |
| 2026-04-28 08:14 | 27.41437 | 89.41348 | 9594 ft | 182 kts | 304° |
| 2026-04-28 08:15 | 27.42114 | 89.40154 | 9584 ft | 181 kts | 292° |
| 2026-04-28 08:15 | 27.42610 | 89.38822 | 9521 ft | 187 kts | 289° |
| 2026-04-28 08:15 | 27.43075 | 89.37415 | 9465 ft | 195 kts | 279° |
| 2026-04-28 08:15 | 27.43283 | 89.35920 | 9695 ft | 193 kts | 272° |
| 2026-04-28 08:16 | 27.43866 | 89.34582 | 9878 ft | 197 kts | 322° |
| 2026-04-28 08:16 | 27.45120 | 89.34217 | 9877 ft | 186 kts | 18° |
| 2026-04-28 08:16 | 27.46098 | 89.35011 | 9845 ft | 172 kts | 70° |
| 2026-04-28 08:16 | 27.46080 | 89.36270 | 9379 ft | 164 kts | 116° |
| 2026-04-28 08:17 | 27.45517 | 89.37333 | 9225 ft | 160 kts | 126° |
| 2026-04-28 08:17 | 27.44882 | 89.38273 | 9133 ft | 145 kts | 126° |
| 2026-04-28 08:17 | 27.44484 | 89.39348 | 8806 ft | 154 kts | 104° |
| 2026-04-28 08:17 | 27.44225 | 89.40459 | 8461 ft | 139 kts | 113° |
| 2026-04-28 08:18 | 27.43548 | 89.41253 | 8093 ft | 159 kts | 158° |
| 2026-04-28 08:18 | 27.42475 | 89.41465 | 7756 ft | 146 kts | 164° |
| 2026-04-28 08:18 | 27.41490 | 89.41788 | 7469 ft | 136 kts | 153° |
| 2026-04-28 08:18 | 27.40734 | 89.42223 | 7359 ft | 103 kts | 151° |
| 2026-04-28 08:19 | 27.40224 | 89.42538 | 7333 ft | 62 kts | 152° |
| 2026-04-28 08:19 | 27.39922 | 89.42731 | 7326 ft | 44 kts | 151° |
| 2026-04-28 08:19 | 27.39677 | 89.42887 | 7319 ft | 25 kts | 150° |
| 2026-04-28 08:19 | 27.39652 | 89.42902 | 7318 ft | 0 kts | 152° |
| 2026-04-28 08:20 | 27.39626 | 89.42918 | 7318 ft | 6 kts | 151° |
| 2026-04-28 08:20 | 27.39568 | 89.42954 | 7315 ft | 15 kts | 151° |
| 2026-04-28 08:20 | 27.39474 | 89.43014 | 7309 ft | 10 kts | 151° |
| 2026-04-28 08:20 | 27.39459 | 89.43015 | 7308 ft | 4 kts | 183° |
| 2026-04-28 08:21 | 27.39440 | 89.43001 | 7308 ft | 1 kts | 228° |
| 2026-04-28 08:21 | 27.39426 | 89.42976 | 7309 ft | 7 kts | 240° |
| 2026-04-28 08:21 | 27.39426 | 89.42946 | 7310 ft | 2 kts | 290° |
| 2026-04-28 08:21 | 27.39431 | 89.42940 | 7310 ft | 2 kts | 308° |
| 2026-04-28 08:22 | 27.39448 | 89.42927 | 7311 ft | 8 kts | 326° |
| 2026-04-28 08:22 | 27.39544 | 89.42863 | 7316 ft | 22 kts | 330° |
| 2026-04-28 08:22 | 27.39666 | 89.42786 | 7318 ft | 18 kts | 330° |
| 2026-04-28 08:22 | 27.39764 | 89.42723 | 7322 ft | 14 kts | 330° |
| 2026-04-28 08:23 | 27.39842 | 89.42673 | 7324 ft | 13 kts | 332° |
| 2026-04-28 08:23 | 27.39881 | 89.42654 | 7325 ft | 2 kts | 331° |
| 2026-04-28 08:23 | 27.39898 | 89.42640 | 7325 ft | 8 kts | 324° |
| 2026-04-28 08:23 | 27.39977 | 89.42588 | 7325 ft | 17 kts | 333° |
| 2026-04-28 08:24 | 27.40065 | 89.42532 | 7330 ft | 12 kts | 330° |
| 2026-04-28 08:24 | 27.40136 | 89.42486 | 7329 ft | 12 kts | 330° |
| 2026-04-28 08:24 | 27.40220 | 89.42432 | 7334 ft | 15 kts | 330° |
| 2026-04-28 08:24 | 27.40314 | 89.42372 | 7339 ft | 14 kts | 330° |
| 2026-04-28 08:25 | 27.40385 | 89.42327 | 7343 ft | 11 kts | 330° |
| 2026-04-28 08:25 | 27.40459 | 89.42280 | 7346 ft | 12 kts | 330° |
| 2026-04-28 08:25 | 27.40520 | 89.42241 | 7349 ft | 8 kts | 330° |
| 2026-04-28 08:26 | 27.40534 | 89.42232 | 7349 ft | 0 kts | 330° |
| 2026-04-28 08:34 | 27.40545 | 89.42226 | 7349 ft | 6 kts | 330° |
| 2026-04-28 08:34 | 27.40615 | 89.42181 | 7352 ft | 17 kts | 329° |
| 2026-04-28 08:34 | 27.40726 | 89.42084 | 7357 ft | 22 kts | 321° |
| 2026-04-28 08:35 | 27.40787 | 89.42056 | 7357 ft | 5 kts | 7° |
| 2026-04-28 08:35 | 27.40817 | 89.42087 | 7359 ft | 11 kts | 48° |
| 2026-04-28 08:35 | 27.40859 | 89.42127 | 7361 ft | 10 kts | 24° |
| 2026-04-28 08:35 | 27.40946 | 89.42095 | 7364 ft | 18 kts | 332° |
| 2026-04-28 08:36 | 27.41071 | 89.42004 | 7367 ft | 21 kts | 329° |
| 2026-04-28 08:36 | 27.41162 | 89.41919 | 7368 ft | 8 kts | 307° |
| 2026-04-28 08:36 | 27.41185 | 89.41900 | 7369 ft | 1 kts | 343° |
| 2026-04-28 08:37 | 27.41195 | 89.41897 | 7369 ft | 1 kts | 347° |
| 2026-04-28 08:37 | 27.41203 | 89.41898 | 7370 ft | 1 kts | 5° |
| 2026-04-28 08:37 | 27.41206 | 89.41902 | 7370 ft | 1 kts | 33° |
| 2026-04-28 08:37 | 27.41207 | 89.41911 | 7369 ft | 1 kts | 75° |
| 2026-04-28 08:38 | 27.41204 | 89.41918 | 7369 ft | 1 kts | 109° |
| 2026-04-28 08:38 | 27.41184 | 89.41935 | 7368 ft | 5 kts | 146° |
| 2026-04-28 08:38 | 27.41165 | 89.41947 | 7368 ft | 0 kts | 157° |
| 2026-04-28 08:38 | 27.40975 | 89.42062 | 7365 ft | 82 kts | 150° |
| 2026-04-28 08:39 | 27.40171 | 89.42568 | 7362 ft | 175 kts | 149° |
| 2026-04-28 08:39 | 27.39087 | 89.43253 | 8448 ft | 174 kts | 151° |
| 2026-04-28 08:39 | 27.38023 | 89.43798 | 9872 ft | 169 kts | 154° |
| 2026-04-28 08:39 | 27.36975 | 89.44528 | 10828 ft | 183 kts | 144° |
| 2026-04-28 08:40 | 27.35939 | 89.45423 | 11831 ft | 192 kts | 144° |
| 2026-04-28 08:40 | 27.34837 | 89.46386 | 12561 ft | 214 kts | 143° |
| 2026-04-28 08:40 | 27.33651 | 89.47436 | 12949 ft | 220 kts | 144° |
| 2026-04-28 08:40 | 27.32438 | 89.48515 | 13331 ft | 224 kts | 144° |
| 2026-04-28 08:41 | 27.31204 | 89.49610 | 13501 ft | 227 kts | 145° |
| 2026-04-28 08:41 | 27.29812 | 89.50364 | 13508 ft | 221 kts | 171° |
| 2026-04-28 08:41 | 27.28279 | 89.50646 | 13529 ft | 226 kts | 173° |
| 2026-04-28 08:41 | 27.26748 | 89.50864 | 13531 ft | 215 kts | 174° |
| 2026-04-28 08:42 | 27.25291 | 89.51091 | 13511 ft | 211 kts | 174° |
| 2026-04-28 08:42 | 27.23860 | 89.51324 | 13524 ft | 211 kts | 174° |
| 2026-04-28 08:42 | 27.22391 | 89.51569 | 13526 ft | 210 kts | 171° |
| 2026-04-28 08:42 | 27.21074 | 89.52274 | 13505 ft | 214 kts | 139° |
| 2026-04-28 08:43 | 27.20322 | 89.53682 | 13564 ft | 218 kts | 105° |
| 2026-04-28 08:43 | 27.20386 | 89.55366 | 13664 ft | 220 kts | 70° |
| 2026-04-28 08:43 | 27.21267 | 89.56744 | 13821 ft | 220 kts | 36° |
| 2026-04-28 08:43 | 27.22660 | 89.57379 | 13809 ft | 219 kts | 2° |
| 2026-04-28 08:44 | 27.24109 | 89.57064 | 13699 ft | 212 kts | 329° |
| 2026-04-28 08:44 | 27.25284 | 89.56079 | 13664 ft | 211 kts | 316° |
| 2026-04-28 08:44 | 27.26365 | 89.54963 | 13504 ft | 211 kts | 314° |
| 2026-04-28 08:44 | 27.27442 | 89.53822 | 13539 ft | 213 kts | 315° |
| 2026-04-28 08:45 | 27.28527 | 89.52694 | 13530 ft | 212 kts | 315° |
| 2026-04-28 08:45 | 27.29588 | 89.51536 | 13383 ft | 213 kts | 312° |
| 2026-04-28 08:45 | 27.30612 | 89.50362 | 12979 ft | 206 kts | 312° |
| 2026-04-28 08:45 | 27.31660 | 89.49301 | 12573 ft | 201 kts | 324° |
| 2026-04-28 08:46 | 27.32863 | 89.48482 | 12108 ft | 205 kts | 328° |
| 2026-04-28 08:46 | 27.34122 | 89.47675 | 11514 ft | 211 kts | 328° |
| 2026-04-28 08:46 | 27.35400 | 89.46843 | 11063 ft | 211 kts | 328° |
| 2026-04-28 08:46 | 27.36653 | 89.46031 | 10658 ft | 205 kts | 328° |
| 2026-04-28 08:47 | 27.37869 | 89.45246 | 10277 ft | 200 kts | 327° |
| 2026-04-28 08:47 | 27.39066 | 89.44483 | 10076 ft | 195 kts | 327° |
| 2026-04-28 08:47 | 27.40254 | 89.43716 | 10028 ft | 197 kts | 328° |
| 2026-04-28 08:47 | 27.41373 | 89.42852 | 9926 ft | 195 kts | 308° |
| 2026-04-28 08:48 | 27.42133 | 89.41578 | 10081 ft | 198 kts | 297° |
| 2026-04-28 08:48 | 27.42714 | 89.40196 | 10065 ft | 191 kts | 285° |
| 2026-04-28 08:48 | 27.42938 | 89.38771 | 10014 ft | 180 kts | 270° |
| 2026-04-28 08:48 | 27.42978 | 89.37304 | 10016 ft | 191 kts | 262° |
| 2026-04-28 08:49 | 27.42923 | 89.35836 | 10114 ft | 183 kts | 271° |
| 2026-04-28 08:49 | 27.43421 | 89.34443 | 10034 ft | 202 kts | 311° |
| 2026-04-28 08:49 | 27.44671 | 89.33820 | 10199 ft | 206 kts | 5° |
| 2026-04-28 08:49 | 27.45873 | 89.34582 | 9913 ft | 196 kts | 60° |
| 2026-04-28 08:50 | 27.46063 | 89.36033 | 9522 ft | 189 kts | 99° |
| 2026-04-28 08:50 | 27.45695 | 89.37373 | 9234 ft | 172 kts | 121° |
| 2026-04-28 08:50 | 27.45101 | 89.38431 | 8672 ft | 159 kts | 119° |
| 2026-04-28 08:50 | 27.44501 | 89.39563 | 8549 ft | 157 kts | 125° |
| 2026-04-28 08:51 | 27.44048 | 89.40684 | 8309 ft | 155 kts | 123° |
| 2026-04-28 08:51 | 27.43225 | 89.41329 | 8004 ft | 161 kts | 171° |
| 2026-04-28 08:51 | 27.42132 | 89.41506 | 7703 ft | 146 kts | 161° |
| 2026-04-28 08:51 | 27.41171 | 89.41946 | 7397 ft | 145 kts | 150° |
| 2026-04-28 08:52 | 27.40397 | 89.42436 | 7341 ft | 116 kts | 151° |
| 2026-04-28 08:52 | 27.39546 | 89.42981 | 7532 ft | 162 kts | 148° |
| 2026-04-28 08:52 | 27.38734 | 89.43901 | 8543 ft | 179 kts | 114° |
| 2026-04-28 08:52 | 27.38678 | 89.45349 | 9655 ft | 199 kts | 87° |
| 2026-04-28 08:53 | 27.38638 | 89.46787 | 10975 ft | 178 kts | 117° |
| 2026-04-28 08:53 | 27.37668 | 89.47559 | 11573 ft | 195 kts | 178° |
| 2026-04-28 08:53 | 27.36548 | 89.46768 | 11534 ft | 198 kts | 250° |
| 2026-04-28 08:53 | 27.36814 | 89.45311 | 11041 ft | 212 kts | 307° |
| 2026-04-28 08:54 | 27.38078 | 89.44422 | 10270 ft | 222 kts | 343° |
| 2026-04-28 08:54 | 27.39520 | 89.43893 | 9842 ft | 213 kts | 334° |
| 2026-04-28 08:54 | 27.40762 | 89.43091 | 9563 ft | 198 kts | 313° |
| 2026-04-28 08:54 | 27.41509 | 89.41786 | 9351 ft | 205 kts | 286° |
| 2026-04-28 08:55 | 27.41810 | 89.40258 | 9500 ft | 196 kts | 277° |
| 2026-04-28 08:55 | 27.41982 | 89.38691 | 9488 ft | 208 kts | 274° |
| 2026-04-28 08:55 | 27.42164 | 89.37111 | 9857 ft | 204 kts | 279° |
| 2026-04-28 08:55 | 27.42415 | 89.35544 | 10380 ft | 194 kts | 278° |
| 2026-04-28 08:56 | 27.43039 | 89.34185 | 10427 ft | 216 kts | 322° |
| 2026-04-28 08:56 | 27.44397 | 89.33746 | 10530 ft | 202 kts | 8° |
| 2026-04-28 08:56 | 27.45568 | 89.34559 | 10119 ft | 203 kts | 57° |
| 2026-04-28 08:56 | 27.45953 | 89.36047 | 9709 ft | 201 kts | 94° |
| 2026-04-28 08:57 | 27.45608 | 89.37550 | 9375 ft | 196 kts | 117° |
| 2026-04-28 08:57 | 27.45017 | 89.38860 | 9033 ft | 180 kts | 118° |
| 2026-04-28 08:57 | 27.44517 | 89.40072 | 8640 ft | 161 kts | 122° |
| 2026-04-28 08:57 | 27.43893 | 89.41084 | 8324 ft | 159 kts | 142° |
| 2026-04-28 08:58 | 27.42854 | 89.41343 | 7948 ft | 149 kts | 172° |
| 2026-04-28 08:58 | 27.41872 | 89.41592 | 7610 ft | 149 kts | 160° |
| 2026-04-28 08:58 | 27.40998 | 89.42051 | 7378 ft | 129 kts | 150° |
| 2026-04-28 08:58 | 27.40343 | 89.42466 | 7337 ft | 87 kts | 151° |
| 2026-04-28 08:59 | 27.40072 | 89.42636 | 7328 ft | 8 kts | 150° |
| 2026-04-28 08:59 | 27.40070 | 89.42638 | 7328 ft | 0 kts | 150° |